Time;durP1;ratioP1;P1;durP2;ratioP2;P2;SDS_P1;SDS_P2;PMS_P1;PMS_P2;Temp;Humidity;BMP_temperature;BMP_pressure;BME280_temperature;BME280_humidity;BME280_pressure;Samples;Min_cycle;Max_cycle;Signal;HPM_P1;HPM_P2
2022/08/20 00:09:33;;;;;;;3.47;1.50;;;;;;;;;;21004688;28;20048;-58
2022/08/20 00:19:35;;;;;;;5.70;1.80;;;;;;;;;;21003640;28;20511;-57
2022/08/20 00:29:37;;;;;;;;;;;;;;;;;;21003359;28;20121;-56
2022/08/20 00:39:39;;;;;;;2.08;1.23;;;;;;;;;;21002263;28;19962;-55
2022/08/20 00:49:41;;;;;;;4.72;1.05;;;;;;;;;;21001251;28;20049;-56
2022/08/20 00:59:43;;;;;;;6.93;1.20;;;;;;;;;;21001929;28;20052;-57
2022/08/20 01:09:46;;;;;;;2.58;0.90;;;;;;;;;;20999303;28;20052;-57
2022/08/20 01:19:51;;;;;;;2.00;1.20;;;;;;;;;;20999042;28;20421;-56
2022/08/20 01:29:53;;;;;;;2.80;1.40;;;;;;;;;;20998894;28;20413;-56
2022/08/20 01:40:00;;;;;;;5.10;1.30;;;;;;;;;;20998229;28;20131;-57
2022/08/20 01:50:22;;;;;;;2.38;1.20;;;;;;;;;;20996987;28;20055;-55
2022/08/20 02:00:28;;;;;;;3.15;1.95;;;;;;;;;;20996147;28;20490;-57
2022/08/20 02:10:31;;;;;;;3.78;1.20;;;;;;;;;;20995601;28;20080;-57
2022/08/20 02:20:38;;;;;;;2.95;1.77;;;;;;;;;;20995368;28;20060;-56
2022/08/20 02:30:45;;;;;;;2.75;1.55;;;;;;;;;;20994814;28;20053;-57
2022/08/20 02:40:48;;;;;;;4.95;1.55;;;;;;;;;;20994442;28;20676;-55
2022/08/20 02:50:50;;;;;;;;;;;;;;;;;;20994779;28;20463;-55
2022/08/20 03:00:53;;;;;;;2.50;1.40;;;;;;;;;;20993551;28;19967;-57
2022/08/20 03:10:55;;;;;;;3.17;1.30;;;;;;;;;;20993296;28;20083;-57
2022/08/20 03:20:57;;;;;;;3.55;1.40;;;;;;;;;;20992485;28;20044;-57
2022/08/20 03:30:59;;;;;;;4.63;1.30;;;;;;;;;;21003494;28;20060;-59
2022/08/20 03:41:01;;;;;;;3.73;1.60;;;;;;;;;;21006874;28;20044;-57
2022/08/20 03:51:04;;;;;;;2.72;1.35;;;;;;;;;;21007149;28;20464;-57
2022/08/20 04:01:06;;;;;;;3.50;1.63;;;;;;;;;;21006000;28;20045;-57
2022/08/20 04:11:08;;;;;;;2.25;1.50;;;;;;;;;;21004966;28;20316;-55
2022/08/20 04:21:10;;;;;;;3.30;1.47;;;;;;;;;;21003542;28;20053;-56
2022/08/20 04:31:13;;;;;;;;;;;;;;;;;;21004436;28;20057;-57
2022/08/20 04:41:14;;;;;;;3.25;1.60;;;;;;;;;;21001013;28;19920;-58
2022/08/20 04:51:17;;;;;;;3.13;1.40;;;;;;;;;;21001334;28;20099;-56
2022/08/20 05:01:21;;;;;;;1.95;1.38;;;;;;;;;;21001460;28;20044;-55
2022/08/20 05:11:23;;;;;;;2.90;1.70;;;;;;;;;;20998659;28;20492;-56
2022/08/20 05:21:25;;;;;;;2.00;1.37;;;;;;;;;;20998903;28;20127;-55
2022/08/20 05:31:28;;;;;;;4.30;2.83;;;;;;;;;;20999013;28;20053;-55
2022/08/20 05:41:30;;;;;;;6.53;1.90;;;;;;;;;;20998191;28;20134;-56
2022/08/20 05:51:33;;;;;;;5.60;1.73;;;;;;;;;;20996468;28;20048;-55
2022/08/20 06:01:36;;;;;;;6.10;2.20;;;;;;;;;;20996362;28;20499;-57
2022/08/20 06:11:38;;;;;;;5.30;2.08;;;;;;;;;;20995450;28;20271;-57
2022/08/20 06:21:40;;;;;;;4.03;2.20;;;;;;;;;;20995633;28;20048;-56
2022/08/20 06:31:42;;;;;;;8.07;2.10;;;;;;;;;;20995471;28;20045;-56
2022/08/20 06:41:45;;;;;;;4.03;1.97;;;;;;;;;;20994162;28;20052;-56
2022/08/20 06:51:47;;;;;;;5.95;1.80;;;;;;;;;;20993486;28;20052;-56
2022/08/20 07:01:49;;;;;;;3.93;1.93;;;;;;;;;;20999249;28;20041;-55
2022/08/20 07:11:52;;;;;;;2.90;1.37;;;;;;;;;;21009878;28;20052;-55
2022/08/20 07:21:54;;;;;;;3.80;1.50;;;;;;;;;;21008319;28;20127;-56
2022/08/20 07:42:16;;;;;;;2.20;1.30;;;;;;;;;;21006362;28;20074;-55
2022/08/20 07:52:18;;;;;;;2.57;1.60;;;;;;;;;;21006873;28;20048;-55
2022/08/20 08:02:20;;;;;;;2.17;1.50;;;;;;;;;;21004186;28;20492;-55
2022/08/20 08:12:22;;;;;;;3.47;1.50;;;;;;;;;;21004298;28;20063;-56
2022/08/20 08:22:24;;;;;;;3.35;1.80;;;;;;;;;;21003797;28;20412;-55
2022/08/20 08:32:27;;;;;;;7.47;2.60;;;;;;;;;;21003356;28;20059;-55
2022/08/20 08:42:31;;;;;;;6.30;2.30;;;;;;;;;;21001818;28;20045;-59
2022/08/20 08:52:36;;;;;;;3.55;2.58;;;;;;;;;;21001737;28;20105;-57
2022/08/20 09:02:41;;;;;;;3.22;1.90;;;;;;;;;;21001122;28;20403;-57
2022/08/20 09:12:44;;;;;;;4.35;2.08;;;;;;;;;;20999364;28;20135;-57
2022/08/20 09:22:46;;;;;;;4.18;2.03;;;;;;;;;;20997834;28;20124;-56
2022/08/20 09:32:48;;;;;;;4.78;2.15;;;;;;;;;;20996645;28;20168;-57
2022/08/20 09:42:50;;;;;;;5.43;2.50;;;;;;;;;;20996852;28;20419;-56
2022/08/20 09:52:53;;;;;;;5.38;2.30;;;;;;;;;;20995911;28;20045;-57
2022/08/20 10:02:55;;;;;;;3.88;2.50;;;;;;;;;;20996372;28;20049;-57
2022/08/20 10:12:57;;;;;;;8.25;2.70;;;;;;;;;;20996611;28;20110;-57
2022/08/20 10:22:59;;;;;;;10.27;2.60;;;;;;;;;;20995473;28;20052;-57
2022/08/20 10:33:01;;;;;;;9.82;2.83;;;;;;;;;;20994138;28;20080;-58
2022/08/20 10:43:03;;;;;;;6.75;2.30;;;;;;;;;;21011125;28;20123;-58
2022/08/20 10:53:05;;;;;;;5.05;2.13;;;;;;;;;;21011585;28;20083;-57
2022/08/20 11:03:07;;;;;;;5.30;2.53;;;;;;;;;;21010424;28;20055;-58
2022/08/20 11:13:11;;;;;;;6.68;2.92;;;;;;;;;;21010195;28;20476;-57
2022/08/20 11:23:13;;;;;;;9.48;2.63;;;;;;;;;;21007630;28;20128;-56
2022/08/20 11:33:16;;;;;;;6.82;2.50;;;;;;;;;;21007922;28;20086;-56
2022/08/20 11:43:18;;;;;;;8.85;2.78;;;;;;;;;;21007477;28;20079;-58
2022/08/20 11:53:20;;;;;;;3.60;2.22;;;;;;;;;;21004626;28;20045;-57
2022/08/20 12:03:22;;;;;;;7.72;2.90;;;;;;;;;;21005800;28;20056;-58
2022/08/20 12:13:25;;;;;;;5.60;2.78;;;;;;;;;;21005464;28;20044;-59
2022/08/20 12:23:27;;;;;;;8.32;3.03;;;;;;;;;;21004358;28;20053;-58
2022/08/20 12:33:29;;;;;;;5.68;2.33;;;;;;;;;;21004343;28;20477;-57
2022/08/20 12:43:31;;;;;;;4.63;1.90;;;;;;;;;;21003062;28;20125;-57
2022/08/20 12:53:33;;;;;;;2.28;1.40;;;;;;;;;;21003444;28;20053;-58
2022/08/20 13:03:34;;;;;;;3.72;1.50;;;;;;;;;;20999600;28;20139;-56
2022/08/20 13:13:36;;;;;;;1.92;1.10;;;;;;;;;;21001231;28;20447;-58
2022/08/20 13:23:38;;;;;;;4.68;1.40;;;;;;;;;;20998693;28;20378;-58
2022/08/20 13:33:41;;;;;;;3.65;1.80;;;;;;;;;;20998388;28;20127;-57
2022/08/20 13:43:44;;;;;;;4.22;1.20;;;;;;;;;;20998023;28;20098;-58
2022/08/20 13:53:46;;;;;;;2.85;1.30;;;;;;;;;;20998063;28;20052;-56
2022/08/20 14:03:48;;;;;;;3.45;1.75;;;;;;;;;;20996294;28;20387;-59
2022/08/20 14:13:52;;;;;;;4.35;1.77;;;;;;;;;;20996688;28;20044;-55
2022/08/20 14:23:54;;;;;;;4.70;2.53;;;;;;;;;;20996909;28;20404;-57
2022/08/20 14:33:56;;;;;;;5.32;1.67;;;;;;;;;;20995249;28;20044;-56
2022/08/20 14:43:58;;;;;;;3.42;1.30;;;;;;;;;;20994867;28;20170;-59
2022/08/20 14:54:01;;;;;;;3.85;1.20;;;;;;;;;;20994267;28;20064;-56
2022/08/20 15:04:03;;;;;;;1.52;1.00;;;;;;;;;;20994912;28;20049;-56
2022/08/20 15:14:05;;;;;;;3.60;1.00;;;;;;;;;;20993508;28;20048;-56
2022/08/20 15:24:07;;;;;;;2.67;1.10;;;;;;;;;;21000607;28;20060;-55
2022/08/20 15:34:09;;;;;;;2.95;1.10;;;;;;;;;;21009481;28;20094;-55
2022/08/20 15:44:11;;;;;;;2.30;1.10;;;;;;;;;;21007308;28;20052;-55
2022/08/20 15:54:15;;;;;;;2.03;1.20;;;;;;;;;;21007447;28;20045;-54
2022/08/20 16:04:20;;;;;;;2.28;1.10;;;;;;;;;;21005988;28;20412;-55
2022/08/20 16:14:24;;;;;;;1.52;0.82;;;;;;;;;;21005067;28;20084;-57
2022/08/20 16:24:26;;;;;;;3.53;0.90;;;;;;;;;;21003755;28;20056;-57
2022/08/20 16:34:27;;;;;;;1.73;0.93;;;;;;;;;;21002088;28;20051;-58
2022/08/20 16:44:34;;;;;;;4.15;2.28;;;;;;;;;;21003662;28;20068;-58
2022/08/20 16:54:36;;;;;;;1.95;1.52;;;;;;;;;;21003193;28;20052;-56
2022/08/20 17:04:45;;;;;;;2.33;1.50;;;;;;;;;;21001928;28;20091;-56
2022/08/20 17:14:51;;;;;;;1.37;1.00;;;;;;;;;;21000375;28;20051;-58
2022/08/20 17:24:56;;;;;;;2.30;1.25;;;;;;;;;;20999641;28;20049;-57
2022/08/20 17:34:59;;;;;;;1.95;1.20;;;;;;;;;;20999453;28;20050;-57
2022/08/20 17:45:36;;;;;;;2.20;1.33;;;;;;;;;;20997437;28;20056;-61
2022/08/20 17:55:39;;;;;;;3.30;0.90;;;;;;;;;;20906285;28;20509;-57
2022/08/20 18:05:41;;;;;;;2.00;1.20;;;;;;;;;;20906192;28;20091;-57
2022/08/20 18:15:46;;;;;;;2.83;1.40;;;;;;;;;;20907306;28;20080;-58
2022/08/20 18:25:54;;;;;;;2.10;1.50;;;;;;;;;;20950734;28;20048;-58
2022/08/20 18:36:05;;;;;;;5.35;1.85;;;;;;;;;;20996325;28;20496;-59
2022/08/20 18:46:11;;;;;;;6.43;2.15;;;;;;;;;;20994484;28;20061;-57
2022/08/20 18:56:14;;;;;;;3.40;1.77;;;;;;;;;;20995947;28;20052;-57
2022/08/20 19:06:24;;;;;;;3.10;1.92;;;;;;;;;;21011620;28;20404;-58
2022/08/20 19:16:36;;;;;;;8.82;3.95;;;;;;;;;;21010579;28;20226;-57
2022/08/20 19:26:41;;;;;;;8.95;5.35;;;;;;;;;;21007809;28;20052;-56
2022/08/20 19:36:43;;;;;;;6.85;2.85;;;;;;;;;;21007830;28;20056;-57
2022/08/20 19:46:47;;;;;;;7.80;2.28;;;;;;;;;;21007183;28;20140;-58
2022/08/20 19:56:49;;;;;;;8.27;3.33;;;;;;;;;;21007631;28;20060;-58
2022/08/20 20:06:51;;;;;;;5.50;3.47;;;;;;;;;;21006463;28;20060;-57
2022/08/20 20:16:54;;;;;;;6.97;2.90;;;;;;;;;;21004515;28;20076;-56
2022/08/20 20:26:58;;;;;;;7.95;4.25;;;;;;;;;;21003482;28;20052;-59
2022/08/20 20:37:05;;;;;;;17.85;5.95;;;;;;;;;;21003368;28;20048;-59
2022/08/20 20:47:08;;;;;;;6.13;3.40;;;;;;;;;;21002794;28;20063;-59
2022/08/20 20:57:19;;;;;;;6.95;3.60;;;;;;;;;;21002415;28;20048;-59
2022/08/20 21:07:22;;;;;;;9.02;4.00;;;;;;;;;;21002054;28;20087;-58
2022/08/20 21:17:24;;;;;;;5.10;3.40;;;;;;;;;;21000389;28;20503;-57
2022/08/20 21:27:27;;;;;;;7.07;3.40;;;;;;;;;;20999422;28;20044;-58
2022/08/20 21:37:29;;;;;;;17.58;3.92;;;;;;;;;;21000033;28;20072;-56
2022/08/20 21:47:32;;;;;;;5.53;3.30;;;;;;;;;;20997928;28;20063;-57
2022/08/20 21:57:34;;;;;;;5.32;4.25;;;;;;;;;;20997451;28;20098;-57
2022/08/20 22:07:36;;;;;;;8.38;2.97;;;;;;;;;;20997581;28;20060;-57
2022/08/20 22:17:38;;;;;;;8.63;5.50;;;;;;;;;;20996793;28;20047;-57
2022/08/20 22:27:40;;;;;;;2.78;2.20;;;;;;;;;;20995654;28;20087;-60
2022/08/20 22:37:42;;;;;;;4.38;2.13;;;;;;;;;;20995140;28;20516;-57
2022/08/20 22:47:45;;;;;;;6.60;2.03;;;;;;;;;;20994598;28;20412;-58
2022/08/20 22:57:47;;;;;;;3.67;1.70;;;;;;;;;;20994770;28;20075;-58
2022/08/20 23:07:49;;;;;;;3.88;2.00;;;;;;;;;;20994268;28;20048;-58
2022/08/20 23:17:53;;;;;;;4.50;2.35;;;;;;;;;;20994252;28;20053;-57
2022/08/20 23:27:56;;;;;;;3.65;1.67;;;;;;;;;;20993438;28;20095;-58
2022/08/20 23:37:58;;;;;;;3.20;2.03;;;;;;;;;;20992915;28;20480;-56
2022/08/20 23:48:00;;;;;;;3.70;1.58;;;;;;;;;;21003519;28;20449;-57
2022/08/20 23:58:02;;;;;;;2.60;1.40;;;;;;;;;;21008778;28;20040;-57
